Time;durP1;ratioP1;P1;durP2;ratioP2;P2;SDS_P1;SDS_P2;PMS_P1;PMS_P2;Temp;Humidity;BMP_temperature;BMP_pressure;BME280_temperature;BME280_humidity;BME280_pressure;Samples;Min_cycle;Max_cycle;Signal;HPM_P1;HPM_P2
2023/10/04 00:00:15;;;;;;;13.00;4.50;;;;;;;15.01;100.00;98742.63;5159328;27;20328;-63
2023/10/04 00:02:44;;;;;;;11.43;4.35;;;;;;;15.02;100.00;98741.44;5158684;27;20061;-62
2023/10/04 00:05:13;;;;;;;8.90;4.15;;;;;;;14.94;100.00;98722.56;5158985;27;20332;-63
2023/10/04 00:07:41;;;;;;;12.15;5.32;;;;;;;15.01;100.00;98701.22;5159070;27;20054;-63
2023/10/04 00:10:08;;;;;;;12.25;4.22;;;;;;;14.98;100.00;98721.34;5158674;27;20046;-65
2023/10/04 00:12:34;;;;;;;10.43;4.57;;;;;;;15.10;100.00;98711.81;5159032;27;20320;-64
2023/10/04 00:15:00;;;;;;;10.60;6.90;;;;;;;14.89;100.00;98723.00;5158736;27;20047;-65
2023/10/04 00:17:26;;;;;;;7.88;4.00;;;;;;;14.73;100.00;98731.78;5158826;27;20205;-64
2023/10/04 00:19:56;;;;;;;9.48;3.72;;;;;;;14.85;100.00;98739.56;5158603;27;20047;-62
2023/10/04 00:22:23;;;;;;;9.90;4.25;;;;;;;14.80;100.00;98737.25;5158877;27;20043;-61
2023/10/04 00:24:50;;;;;;;7.97;4.07;;;;;;;15.02;100.00;98719.34;5158501;27;20047;-65
2023/10/04 00:27:16;;;;;;;11.15;6.80;;;;;;;14.89;100.00;98700.91;5158863;27;20146;-61
2023/10/04 00:29:42;;;;;;;7.07;4.32;;;;;;;14.97;100.00;98707.97;5158296;27;20046;-62
2023/10/04 00:32:07;;;;;;;8.15;4.25;;;;;;;15.07;100.00;98694.06;5158491;27;20133;-63
2023/10/04 00:34:33;;;;;;;8.43;4.30;;;;;;;14.68;100.00;98696.31;5157637;27;20093;-64
2023/10/04 00:37:00;;;;;;;12.18;4.53;;;;;;;14.76;100.00;98692.31;5158161;27;20412;-65
2023/10/04 00:39:26;;;;;;;17.30;7.32;;;;;;;14.72;100.00;98699.84;5158300;27;20053;-63
2023/10/04 00:41:54;;;;;;;9.80;4.82;;;;;;;14.71;100.00;98692.75;5158324;27;20051;-62
2023/10/04 00:44:21;;;;;;;14.32;4.70;;;;;;;14.67;100.00;98690.03;5158556;27;20308;-64
2023/10/04 00:46:47;;;;;;;8.18;4.15;;;;;;;14.88;100.00;98689.09;5158184;27;20141;-64
2023/10/04 00:49:13;;;;;;;8.38;4.22;;;;;;;14.73;100.00;98673.84;5158528;27;20050;-61
2023/10/04 00:51:40;;;;;;;8.23;4.82;;;;;;;14.63;100.00;98678.22;5158037;27;20054;-64
2023/10/04 00:54:09;;;;;;;10.55;4.75;;;;;;;14.64;100.00;98681.78;5158461;27;20135;-65
2023/10/04 00:56:36;;;;;;;11.32;7.45;;;;;;;14.80;100.00;98676.53;5157947;27;20363;-65
2023/10/04 00:59:03;;;;;;;11.27;4.65;;;;;;;14.74;100.00;98667.13;5158576;27;20354;-62
2023/10/04 01:01:29;;;;;;;12.70;4.75;;;;;;;14.72;100.00;98664.75;5158210;27;20108;-65
2023/10/04 01:03:55;;;;;;;10.73;4.60;;;;;;;14.58;100.00;98665.63;5158121;27;20046;-61
2023/10/04 01:06:22;;;;;;;8.13;4.82;;;;;;;14.49;100.00;98670.78;5158203;27;20096;-63
2023/10/04 01:08:48;;;;;;;13.02;4.88;;;;;;;14.62;100.00;98653.78;5157847;27;20103;-61
2023/10/04 01:11:14;;;;;;;15.25;4.70;;;;;;;14.43;100.00;98650.34;5158084;27;20437;-63
2023/10/04 01:13:40;;;;;;;12.50;7.13;;;;;;;14.49;100.00;98650.69;5157747;27;20057;-62
2023/10/04 01:16:09;;;;;;;6.75;4.53;;;;;;;14.61;100.00;98639.22;5157963;27;20392;-65
2023/10/04 01:18:35;;;;;;;9.02;4.40;;;;;;;14.62;100.00;98645.53;5157648;27;20051;-65
2023/10/04 01:21:01;;;;;;;10.02;4.88;;;;;;;14.69;100.00;98649.00;5158176;27;20055;-63
2023/10/04 01:23:28;;;;;;;10.70;4.88;;;;;;;14.53;100.00;98654.25;5157638;27;20559;-61
2023/10/04 01:25:54;;;;;;;10.55;5.18;;;;;;;14.57;100.00;98661.31;5158093;27;20309;-62
2023/10/04 01:28:26;;;;;;;13.52;4.78;;;;;;;14.60;100.00;98662.50;5157549;27;20081;-64
2023/10/04 01:30:53;;;;;;;14.95;5.07;;;;;;;14.67;100.00;98669.94;5157762;27;20047;-60
2023/10/04 01:33:19;;;;;;;13.00;4.97;;;;;;;14.92;100.00;98675.25;5157731;27;20105;-64
2023/10/04 01:35:48;;;;;;;14.23;4.70;;;;;;;14.94;100.00;98686.69;5157581;27;20047;-64
2023/10/04 01:38:15;;;;;;;12.55;5.10;;;;;;;14.70;100.00;98680.94;5157865;27;20057;-65
2023/10/04 01:40:43;;;;;;;9.93;4.75;;;;;;;14.66;100.00;98671.91;5157477;27;20331;-65
2023/10/04 01:43:14;;;;;;;10.25;4.75;;;;;;;14.92;100.00;98666.97;5157644;27;20431;-63
2023/10/04 01:45:43;;;;;;;10.45;4.85;;;;;;;14.72;100.00;98664.75;5158703;27;20137;-63
2023/10/04 01:48:09;;;;;;;16.63;5.25;;;;;;;14.85;100.00;98656.78;5161415;27;20055;-62
2023/10/04 01:50:35;;;;;;;19.73;5.95;;;;;;;14.71;100.00;98654.91;5161014;27;20050;-64
2023/10/04 01:53:02;;;;;;;16.13;5.28;;;;;;;14.83;100.00;98654.44;5160873;27;20426;-65
2023/10/04 01:55:27;;;;;;;12.85;6.07;;;;;;;14.89;100.00;98654.00;5160858;27;20047;-63
2023/10/04 01:57:54;;;;;;;14.70;6.40;;;;;;;14.93;100.00;98654.78;5160903;27;20106;-62
2023/10/04 02:00:22;;;;;;;11.05;5.90;;;;;;;15.14;100.00;98649.06;5160724;27;20416;-62
2023/10/04 02:02:48;;;;;;;20.67;7.80;;;;;;;15.14;100.00;98634.47;5160846;27;20057;-62
2023/10/04 02:05:17;;;;;;;13.20;7.75;;;;;;;15.16;100.00;98627.34;5161082;27;20046;-62
2023/10/04 02:07:44;;;;;;;21.73;13.00;;;;;;;15.03;100.00;98613.28;5160791;27;20135;-64
2023/10/04 02:10:18;;;;;;;22.83;8.20;;;;;;;15.02;100.00;98622.72;5160960;27;20046;-64
2023/10/04 02:12:43;;;;;;;;;;;;;;;15.36;100.00;98624.81;5161076;27;20054;-64
2023/10/04 02:15:15;;;;;;;22.67;8.88;;;;;;;15.24;100.00;98597.69;5161034;27;20349;-65
2023/10/04 02:17:42;;;;;;;21.65;8.30;;;;;;;15.13;100.00;98599.75;5160343;27;20336;-61
2023/10/04 02:20:13;;;;;;;20.58;8.38;;;;;;;15.27;100.00;98588.59;5160427;27;20043;-62
2023/10/04 02:22:39;;;;;;;15.55;7.53;;;;;;;14.90;100.00;98608.66;5160669;27;20054;-63
2023/10/04 02:25:06;;;;;;;14.95;7.45;;;;;;;15.17;100.00;98617.88;5160578;27;20146;-64
2023/10/04 02:27:32;;;;;;;15.57;7.55;;;;;;;15.49;100.00;98595.47;5160519;27;20055;-62
2023/10/04 02:29:58;;;;;;;19.30;12.55;;;;;;;15.19;100.00;98587.09;5160396;27;20103;-61
2023/10/04 02:32:25;;;;;;;22.13;7.32;;;;;;;15.49;100.00;98584.41;5160374;27;20065;-61
2023/10/04 02:34:52;;;;;;;14.80;6.63;;;;;;;15.19;100.00;98542.91;5160293;27;20061;-62
2023/10/04 02:37:19;;;;;;;21.58;6.90;;;;;;;15.49;100.00;98528.34;5160509;27;20327;-61
2023/10/04 02:39:45;;;;;;;17.83;6.57;;;;;;;15.42;100.00;98532.00;5160152;27;20046;-64
2023/10/04 02:42:12;;;;;;;15.90;7.20;;;;;;;15.33;100.00;98526.19;5160598;27;20046;-63
2023/10/04 02:44:38;;;;;;;16.30;6.75;;;;;;;15.53;100.00;98516.09;5160062;27;20047;-63
2023/10/04 02:47:06;;;;;;;23.75;13.82;;;;;;;15.41;100.00;98526.91;5160260;27;20062;-65
2023/10/04 02:49:34;;;;;;;15.77;7.15;;;;;;;15.66;100.00;98510.81;5160065;27;20507;-63
2023/10/04 02:52:00;;;;;;;16.63;6.75;;;;;;;15.44;100.00;98506.72;5160107;27;20053;-61
2023/10/04 02:54:28;;;;;;;14.07;6.45;;;;;;;15.47;100.00;98528.78;5160050;27;20138;-62
2023/10/04 02:56:53;;;;;;;14.73;9.30;;;;;;;15.68;100.00;98526.97;5159015;27;20446;-63
2023/10/04 02:59:19;;;;;;;14.25;9.15;;;;;;;15.63;100.00;98503.34;5160190;27;20078;-63
2023/10/04 03:01:45;;;;;;;17.00;6.15;;;;;;;15.75;100.00;98457.78;5159734;27;20141;-65
2023/10/04 03:04:14;;;;;;;12.95;5.40;;;;;;;15.50;100.00;98452.59;5160211;27;20078;-65
2023/10/04 03:06:41;;;;;;;13.18;5.95;;;;;;;15.62;100.00;98454.00;5159659;27;20079;-63
2023/10/04 03:09:07;;;;;;;10.77;5.60;;;;;;;15.73;100.00;98488.63;5160109;27;20444;-63
2023/10/04 03:11:33;;;;;;;18.30;5.90;;;;;;;15.72;100.00;98475.19;5159689;27;20072;-64
2023/10/04 03:13:59;;;;;;;19.95;5.68;;;;;;;15.54;100.00;98506.59;5160022;27;20082;-65
2023/10/04 03:16:25;;;;;;;10.45;6.20;;;;;;;15.51;100.00;98499.13;5159749;27;20062;-65
2023/10/04 03:18:51;;;;;;;12.80;5.63;;;;;;;15.51;100.00;98512.94;5159750;27;20093;-63
2023/10/04 03:21:20;;;;;;;13.82;6.53;;;;;;;15.48;100.00;98486.16;5159744;27;20050;-61
2023/10/04 03:23:46;;;;;;;14.70;6.45;;;;;;;15.53;100.00;98479.41;5159431;27;20043;-65
2023/10/04 03:26:14;;;;;;;16.67;9.27;;;;;;;15.57;100.00;98507.75;5159741;27;20106;-64
2023/10/04 03:28:40;;;;;;;12.63;8.98;;;;;;;15.56;100.00;98488.81;5159417;27;20317;-62
2023/10/04 03:31:10;;;;;;;11.98;5.55;;;;;;;15.76;100.00;98509.09;5159666;27;20057;-61
2023/10/04 03:33:36;;;;;;;14.32;6.65;;;;;;;15.69;100.00;98470.50;5159206;27;20396;-64
2023/10/04 03:36:05;;;;;;;12.70;5.20;;;;;;;15.91;100.00;98449.66;5159203;27;20133;-65
2023/10/04 03:38:34;;;;;;;19.48;7.70;;;;;;;15.76;100.00;98464.88;5159176;27;20068;-65
2023/10/04 03:41:03;;;;;;;10.65;5.47;;;;;;;15.78;100.00;98479.06;5159524;27;20405;-64
2023/10/04 03:43:29;;;;;;;13.15;5.88;;;;;;;15.99;100.00;98486.25;5159410;27;20050;-64
2023/10/04 03:45:55;;;;;;;11.30;5.80;;;;;;;16.10;100.00;98436.34;5159020;27;20050;-63
2023/10/04 03:48:23;;;;;;;15.55;5.57;;;;;;;16.10;100.00;98442.66;5159129;27;20046;-65
2023/10/04 03:50:50;;;;;;;9.65;5.40;;;;;;;15.91;100.00;98471.78;5158986;27;20047;-63
2023/10/04 03:53:20;;;;;;;12.20;5.05;;;;;;;16.11;100.00;98480.16;5159281;27;20058;-65
2023/10/04 03:55:46;;;;;;;10.63;5.47;;;;;;;15.80;100.00;98556.84;5159007;27;20047;-62
2023/10/04 03:58:15;;;;;;;9.55;5.00;;;;;;;16.13;100.00;98593.91;5159194;27;20416;-64
2023/10/04 04:00:42;;;;;;;14.73;5.78;;;;;;;16.04;100.00;98626.81;5158846;27;20043;-65
2023/10/04 04:03:08;;;;;;;15.27;5.53;;;;;;;16.02;100.00;98631.19;5159276;27;20057;-63
2023/10/04 04:05:38;;;;;;;15.55;5.88;;;;;;;16.24;100.00;98643.53;5158754;27;20047;-62
2023/10/04 04:08:05;;;;;;;11.70;6.10;;;;;;;16.26;100.00;98621.78;5158743;27;20123;-65
2023/10/04 04:10:31;;;;;;;14.00;5.70;;;;;;;16.17;100.00;98614.00;5157953;27;20149;-63
2023/10/04 04:12:59;;;;;;;10.32;5.95;;;;;;;16.19;100.00;98657.81;5158786;27;20051;-64
2023/10/04 04:15:27;;;;;;;13.00;9.15;;;;;;;15.95;100.00;98676.28;5158695;27;20082;-62
2023/10/04 04:17:54;;;;;;;12.38;5.78;;;;;;;15.79;100.00;98676.06;5158614;27;20058;-64
2023/10/04 04:20:23;;;;;;;13.80;5.70;;;;;;;15.40;100.00;98675.25;5158686;27;20439;-64
2023/10/04 04:22:50;;;;;;;10.80;5.18;;;;;;;15.72;100.00;98677.72;5158432;27;20439;-62
2023/10/04 04:25:19;;;;;;;8.93;5.05;;;;;;;15.82;100.00;98702.88;5158771;27;20078;-65
2023/10/04 04:27:45;;;;;;;7.63;4.63;;;;;;;15.95;100.00;98731.56;5158289;27;20415;-63
2023/10/04 04:30:16;;;;;;;9.80;5.22;;;;;;;16.12;100.00;98744.41;5158784;27;20387;-65
2023/10/04 04:32:45;;;;;;;11.23;5.05;;;;;;;16.04;100.00;98764.28;5158329;27;20407;-62
2023/10/04 04:35:16;;;;;;;7.93;4.25;;;;;;;15.97;100.00;98785.25;5158277;27;20050;-64
2023/10/04 04:37:44;;;;;;;8.82;4.05;;;;;;;15.70;100.00;98787.13;5158481;27;20043;-62
2023/10/04 04:40:17;;;;;;;5.85;3.50;;;;;;;15.69;100.00;98786.34;5158376;27;20146;-62
2023/10/04 04:42:47;;;;;;;9.32;3.50;;;;;;;15.49;100.00;98788.84;5158462;27;20046;-65
2023/10/04 04:45:16;;;;;;;4.60;3.10;;;;;;;15.65;100.00;98773.69;5157967;27;20476;-61
2023/10/04 04:47:44;;;;;;;8.38;3.22;;;;;;;15.74;100.00;98740.88;5158452;27;20066;-62
2023/10/04 04:50:12;;;;;;;7.18;3.17;;;;;;;15.45;100.00;98685.84;5158112;27;20061;-62
2023/10/04 04:52:38;;;;;;;3.92;2.92;;;;;;;15.63;100.00;98641.50;5158308;27;20058;-62
2023/10/04 04:55:05;;;;;;;6.78;2.65;;;;;;;15.65;100.00;98603.16;5157920;27;20081;-63
2023/10/04 04:57:31;;;;;;;7.07;2.30;;;;;;;15.70;100.00;98557.75;5158119;27;20046;-63
2023/10/04 04:59:57;;;;;;;8.85;2.70;;;;;;;15.52;100.00;98522.78;5157947;27;20057;-61
2023/10/04 05:02:26;;;;;;;3.50;2.03;;;;;;;15.50;100.00;98568.63;5157885;27;20054;-65
2023/10/04 05:04:52;;;;;;;5.13;2.50;;;;;;;15.53;100.00;98567.78;5157735;27;20404;-64
2023/10/04 05:07:18;;;;;;;3.63;2.22;;;;;;;15.50;100.00;98652.28;5157767;27;20142;-62
2023/10/04 05:09:44;;;;;;;4.65;2.50;;;;;;;15.61;100.00;98544.41;5157818;27;20411;-61
2023/10/04 05:12:11;;;;;;;8.35;4.03;;;;;;;15.55;100.00;98579.19;5157650;27;20050;-64
2023/10/04 05:14:37;;;;;;;4.82;2.35;;;;;;;15.61;100.00;98610.72;5157991;27;20096;-61
2023/10/04 05:17:03;;;;;;;8.05;3.20;;;;;;;15.63;100.00;98577.16;5157473;27;20130;-64
2023/10/04 05:19:29;;;;;;;5.60;3.72;;;;;;;15.67;100.00;98487.50;5157939;27;20047;-61
2023/10/04 05:21:55;;;;;;;4.97;2.25;;;;;;;15.63;100.00;98546.75;5160671;27;20134;-62
2023/10/04 05:24:22;;;;;;;5.40;2.00;;;;;;;15.69;100.00;98534.06;5161628;27;20134;-60
2023/10/04 05:26:48;;;;;;;6.45;2.15;;;;;;;15.81;100.00;98502.34;5160978;27;20062;-62
2023/10/04 05:29:14;;;;;;;4.57;3.67;;;;;;;15.72;100.00;98409.66;5161369;27;20130;-62
2023/10/04 05:31:42;;;;;;;5.97;2.55;;;;;;;15.70;100.00;98378.91;5161035;27;20142;-61
2023/10/04 05:34:08;;;;;;;2.20;1.67;;;;;;;15.68;100.00;98336.31;5161286;27;20391;-62
2023/10/04 05:36:39;;;;;;;6.88;2.08;;;;;;;15.50;100.00;98242.66;5161115;27;20046;-62
2023/10/04 05:39:07;;;;;;;5.85;2.53;;;;;;;15.53;100.00;98273.00;5160809;27;20099;-64
2023/10/04 05:41:35;;;;;;;4.35;1.83;;;;;;;15.70;100.00;98206.84;5161192;27;20405;-64
2023/10/04 05:44:01;;;;;;;5.03;2.30;;;;;;;15.36;100.00;98191.22;5160859;27;20055;-65
2023/10/04 05:46:27;;;;;;;4.35;1.75;;;;;;;15.46;100.00;98167.34;5161182;27;20097;-63
2023/10/04 05:48:53;;;;;;;3.53;2.00;;;;;;;15.43;100.00;98141.38;5160790;27;20058;-62
2023/10/04 05:51:24;;;;;;;1.92;1.42;;;;;;;15.53;100.00;98092.66;5161118;27;20110;-62
2023/10/04 05:53:51;;;;;;;4.10;2.03;;;;;;;15.53;100.00;98179.06;5160580;27;20164;-60
2023/10/04 05:56:19;;;;;;;3.45;2.38;;;;;;;15.48;100.00;98062.75;5160798;27;20336;-62
2023/10/04 05:58:46;;;;;;;3.00;1.50;;;;;;;15.41;100.00;98066.44;5160608;27;20050;-63
2023/10/04 06:01:13;;;;;;;3.58;1.48;;;;;;;15.34;100.00;97983.75;5160506;27;20103;-57
2023/10/04 06:03:39;;;;;;;5.20;2.22;;;;;;;15.52;100.00;97903.25;5160822;27;20476;-61
2023/10/04 06:06:05;;;;;;;2.75;1.30;;;;;;;15.29;100.00;97807.50;5160523;27;20134;-60
2023/10/04 06:08:33;;;;;;;4.20;1.50;;;;;;;15.44;100.00;97800.47;5160618;27;20051;-59
2023/10/04 06:10:59;;;;;;;2.47;1.30;;;;;;;15.44;100.00;97778.38;5160239;27;20130;-58
2023/10/04 06:13:25;;;;;;;4.43;2.20;;;;;;;15.70;100.00;97753.72;5160557;27;20465;-56
2023/10/04 06:15:53;;;;;;;4.07;1.48;;;;;;;15.52;100.00;97779.75;5160344;27;20053;-59
2023/10/04 06:18:19;;;;;;;8.18;1.75;;;;;;;15.48;100.00;97908.88;5160448;27;20107;-54
2023/10/04 06:20:46;;;;;;;4.00;1.15;;;;;;;15.28;100.00;98314.00;5160068;27;20137;-59
2023/10/04 06:23:14;;;;;;;2.28;1.10;;;;;;;15.10;100.00;98529.59;5160012;27;20137;-58
2023/10/04 06:25:41;;;;;;;3.45;0.90;;;;;;;15.07;100.00;98640.84;5160262;27;20141;-56
2023/10/04 06:28:09;;;;;;;2.13;1.13;;;;;;;14.66;100.00;98756.63;5160182;27;20162;-55
2023/10/04 06:30:36;;;;;;;1.67;1.17;;;;;;;14.63;100.00;98793.28;5160199;27;20051;-59
2023/10/04 06:33:04;;;;;;;1.83;1.48;;;;;;;14.67;100.00;98770.03;5159140;27;20133;-59
2023/10/04 06:35:32;;;;;;;6.97;1.27;;;;;;;14.67;100.00;98752.69;5159750;27;20446;-54
2023/10/04 06:37:59;;;;;;;2.03;1.20;;;;;;;14.62;100.00;98676.66;5159809;27;20057;-58
2023/10/04 06:40:27;;;;;;;2.67;1.27;;;;;;;14.71;100.00;98693.53;5160207;27;20089;-55
2023/10/04 06:42:55;;;;;;;1.77;1.00;;;;;;;14.66;100.00;98638.00;5159874;27;20058;-56
2023/10/04 06:45:24;;;;;;;2.42;0.98;;;;;;;14.63;100.00;98528.47;5160424;27;20057;-54
2023/10/04 06:47:51;;;;;;;1.98;1.20;;;;;;;14.57;100.00;98478.47;5159710;27;20050;-52
2023/10/04 06:50:19;;;;;;;1.52;1.00;;;;;;;14.79;100.00;98350.16;5159740;27;20384;-52
2023/10/04 06:52:47;;;;;;;3.03;1.10;;;;;;;15.22;100.00;98164.59;5159934;27;20405;-52
2023/10/04 06:55:14;;;;;;;3.35;0.98;;;;;;;16.15;100.00;97958.28;5159909;27;20054;-59
2023/10/04 06:57:40;;;;;;;2.75;1.25;;;;;;;16.72;100.00;97704.25;5159695;27;20141;-58
2023/10/04 07:00:14;;;;;;;3.63;1.00;;;;;;;16.71;100.00;97675.81;5159683;27;20053;-60
2023/10/04 07:02:41;;;;;;;3.63;1.10;;;;;;;16.53;100.00;97667.31;5159979;27;20046;-61
2023/10/04 07:05:08;;;;;;;4.65;1.75;;;;;;;16.54;100.00;97679.13;5159499;27;20053;-60
2023/10/04 07:07:35;;;;;;;2.10;1.20;;;;;;;16.45;100.00;97686.09;5159913;27;20050;-55
2023/10/04 07:10:01;;;;;;;1.73;1.08;;;;;;;17.01;100.00;97706.97;5159386;27;20054;-60
2023/10/04 07:12:28;;;;;;;2.30;1.10;;;;;;;16.86;100.00;97725.22;5159699;27;20399;-61
2023/10/04 07:14:53;;;;;;;2.03;1.80;;;;;;;17.60;100.00;97788.59;5159378;27;20141;-60
2023/10/04 07:17:19;;;;;;;5.85;0.98;;;;;;;17.90;100.00;97861.31;5159063;27;20391;-56
2023/10/04 07:19:45;;;;;;;3.10;1.27;;;;;;;18.50;100.00;97977.06;5159366;27;20047;-56
2023/10/04 07:22:11;;;;;;;4.28;1.17;;;;;;;18.86;100.00;98061.94;5159479;27;20188;-56
2023/10/04 07:24:38;;;;;;;1.60;1.17;;;;;;;19.93;100.00;98159.09;5159387;27;20365;-55
2023/10/04 07:27:04;;;;;;;2.92;1.10;;;;;;;19.72;100.00;98216.25;5159244;27;20061;-54
2023/10/04 07:29:30;;;;;;;5.18;2.00;;;;;;;19.61;100.00;98254.72;5159448;27;20046;-56
2023/10/04 07:31:56;;;;;;;2.13;1.20;;;;;;;19.24;100.00;98261.88;5159101;27;20134;-56
2023/10/04 07:34:23;;;;;;;4.97;1.95;;;;;;;19.09;100.00;98253.22;5159361;27;20388;-55
2023/10/04 07:36:51;;;;;;;3.47;1.20;;;;;;;19.41;100.00;98276.44;5158936;27;20050;-58
2023/10/04 07:39:17;;;;;;;1.13;0.85;;;;;;;19.89;100.00;98319.00;5159377;27;20047;-58
2023/10/04 07:41:44;;;;;;;3.72;1.20;;;;;;;19.96;100.00;98339.03;5158886;27;20416;-53
2023/10/04 07:44:10;;;;;;;3.45;1.05;;;;;;;20.03;100.00;98343.56;5158855;27;20050;-58
2023/10/04 07:46:36;;;;;;;2.75;1.42;;;;;;;20.22;100.00;98370.31;5158811;27;20459;-53
2023/10/04 07:49:02;;;;;;;4.15;1.52;;;;;;;20.24;100.00;98391.38;5159043;27;20059;-58
2023/10/04 07:51:28;;;;;;;3.80;1.15;;;;;;;19.23;100.00;98383.38;5159047;27;20117;-60
2023/10/04 07:53:55;;;;;;;5.20;1.40;;;;;;;20.07;100.00;98372.03;5158848;27;20047;-60
2023/10/04 07:56:21;;;;;;;2.95;1.00;;;;;;;19.83;100.00;98382.00;5159020;27;20129;-57
2023/10/04 07:58:47;;;;;;;2.35;1.17;;;;;;;19.67;100.00;98394.78;5158562;27;20411;-54
2023/10/04 08:01:14;;;;;;;2.63;1.25;;;;;;;19.56;100.00;98383.19;5158986;27;20051;-59
2023/10/04 08:03:40;;;;;;;2.03;1.17;;;;;;;19.00;100.00;98361.44;5158584;27;20428;-60
2023/10/04 08:06:09;;;;;;;2.28;1.15;;;;;;;18.77;100.00;98354.94;5159000;27;20082;-60
2023/10/04 08:08:35;;;;;;;2.50;1.08;;;;;;;18.79;100.00;98358.06;5158351;27;20051;-54
2023/10/04 08:11:01;;;;;;;4.25;1.35;;;;;;;19.39;100.00;98382.53;5158595;27;20073;-53
2023/10/04 08:13:27;;;;;;;21.63;1.67;;;;;;;18.58;100.00;98391.91;5158760;27;20126;-58
2023/10/04 08:15:54;;;;;;;8.25;1.40;;;;;;;18.52;100.00;98399.22;5158235;27;20057;-56
2023/10/04 08:18:23;;;;;;;7.70;1.23;;;;;;;18.80;100.00;98411.59;5157940;27;20484;-53
2023/10/04 08:20:49;;;;;;;3.22;1.02;;;;;;;19.14;100.00;98424.91;5158335;27;20154;-55
2023/10/04 08:23:16;;;;;;;1.50;1.30;;;;;;;18.68;100.00;98417.84;5158488;27;20051;-57
2023/10/04 08:25:42;;;;;;;3.97;0.93;;;;;;;19.18;100.00;98430.38;5157947;27;20141;-55
2023/10/04 08:28:09;;;;;;;5.55;0.95;;;;;;;19.46;100.00;98449.00;5158507;27;20093;-56
2023/10/04 08:30:38;;;;;;;1.70;1.40;;;;;;;19.64;100.00;98454.06;5158076;27;20046;-55
2023/10/04 08:33:05;;;;;;;8.07;1.67;;;;;;;19.79;100.00;98456.41;5158392;27;20176;-55
2023/10/04 08:35:34;;;;;;;4.45;1.55;;;;;;;19.81;100.00;98456.75;5157990;27;20043;-59
2023/10/04 08:38:03;;;;;;;7.20;1.60;;;;;;;20.34;100.00;98494.00;5157698;27;20043;-57
2023/10/04 08:40:30;;;;;;;3.35;1.50;;;;;;;20.01;100.00;98476.00;5157606;27;20055;-54
2023/10/04 08:42:58;;;;;;;5.00;1.65;;;;;;;20.35;100.00;98497.56;5157634;27;20115;-58
2023/10/04 08:45:27;;;;;;;2.88;1.17;;;;;;;20.00;100.00;98505.81;5157791;27;20490;-55
2023/10/04 08:47:55;;;;;;;8.20;1.92;;;;;;;19.88;100.00;98509.38;5157680;27;20569;-57
2023/10/04 08:50:41;;;;;;;5.90;1.88;;;;;;;19.69;100.00;98520.25;5158035;27;20126;-52
2023/10/04 08:53:25;;;;;;;4.80;1.23;;;;;;;19.81;100.00;98531.84;5157689;27;20051;-53
2023/10/04 08:55:56;;;;;;;7.20;1.83;;;;;;;19.99;100.00;98537.63;5157379;27;20050;-58
2023/10/04 08:58:22;;;;;;;1.90;1.17;;;;;;;20.03;100.00;98518.84;5157448;27;20043;-52
2023/10/04 09:00:50;;;;;;;3.20;1.40;;;;;;;20.22;100.00;98533.75;5157596;27;20137;-55
2023/10/04 09:03:20;;;;;;;2.55;1.48;;;;;;;20.34;100.00;98554.47;5157816;27;20054;-56
2023/10/04 09:05:52;;;;;;;3.13;1.27;;;;;;;20.42;100.00;98555.78;5157589;27;20054;-54
2023/10/04 09:08:18;;;;;;;4.22;1.50;;;;;;;20.42;100.00;98567.69;5157816;27;20050;-56
2023/10/04 09:10:44;;;;;;;4.82;1.67;;;;;;;20.71;100.00;98557.69;5157626;27;20058;-59
2023/10/04 09:13:10;;;;;;;4.78;1.50;;;;;;;20.14;100.00;98568.59;5157911;27;20051;-55
2023/10/04 09:15:37;;;;;;;7.68;1.52;;;;;;;20.02;100.00;98563.78;5157600;27;20046;-60
2023/10/04 09:18:04;;;;;;;2.10;1.00;;;;;;;20.12;100.00;98571.03;5157915;27;20055;-56
2023/10/04 09:20:32;;;;;;;4.20;1.35;;;;;;;18.99;100.00;98548.75;5157586;27;20396;-54
2023/10/04 09:22:59;;;;;;;6.70;1.50;;;;;;;19.03;100.00;98555.78;5157901;27;20069;-57
2023/10/04 09:25:35;;;;;;;3.58;2.30;;;;;;;18.76;100.00;98533.88;5157583;27;20069;-54
2023/10/04 09:28:01;;;;;;;5.70;1.83;;;;;;;18.33;100.00;98531.31;5157641;27;20051;-55
2023/10/04 09:30:28;;;;;;;5.35;1.50;;;;;;;18.16;100.00;98502.78;5157344;27;20369;-57
2023/10/04 09:32:54;;;;;;;7.47;1.58;;;;;;;17.97;100.00;98481.44;5157364;27;20270;-58
2023/10/04 09:35:20;;;;;;;3.03;1.70;;;;;;;18.61;100.00;98515.19;5157539;27;20054;-58
2023/10/04 09:37:46;;;;;;;4.47;1.42;;;;;;;18.43;100.00;98499.00;5157345;27;20142;-56
2023/10/04 09:40:16;;;;;;;4.10;1.25;;;;;;;18.05;100.00;98510.56;5157349;27;20233;-59
2023/10/04 09:42:46;;;;;;;2.17;1.08;;;;;;;18.17;100.00;98501.56;5156893;27;20428;-59
2023/10/04 09:45:13;;;;;;;4.20;1.35;;;;;;;17.91;100.00;98489.47;5157381;27;20137;-59
2023/10/04 09:47:39;;;;;;;3.17;1.27;;;;;;;18.12;100.00;98488.19;5156857;27;20050;-57
2023/10/04 09:50:10;;;;;;;3.72;1.50;;;;;;;18.56;100.00;98508.94;5157343;27;20379;-61
2023/10/04 09:52:38;;;;;;;11.82;1.42;;;;;;;19.12;100.00;98526.59;5156856;27;20115;-58
2023/10/04 09:55:08;;;;;;;2.47;1.10;;;;;;;19.05;100.00;98530.34;5156499;27;20082;-57
2023/10/04 09:57:36;;;;;;;5.68;1.20;;;;;;;19.58;100.00;98544.75;5156350;27;20062;-59
2023/10/04 10:00:05;;;;;;;9.93;1.73;;;;;;;19.61;100.00;98541.09;5156940;27;20089;-62
2023/10/04 10:02:36;;;;;;;3.22;1.70;;;;;;;19.91;100.00;98559.31;5156819;27;20043;-61
2023/10/04 10:05:05;;;;;;;14.52;1.55;;;;;;;19.54;100.00;98552.44;5156876;27;20058;-62
2023/10/04 10:07:33;;;;;;;5.28;1.90;;;;;;;19.76;100.00;98560.97;5159749;27;20083;-59
2023/10/04 10:10:04;;;;;;;3.22;1.33;;;;;;;19.97;100.00;98563.13;5160387;27;20133;-59
2023/10/04 10:12:31;;;;;;;2.08;1.20;;;;;;;19.93;100.00;98561.69;5160268;27;20043;-62
2023/10/04 10:15:00;;;;;;;5.05;1.88;;;;;;;20.14;100.00;98574.94;5160505;27;20138;-61
2023/10/04 10:17:27;;;;;;;4.55;1.70;;;;;;;19.63;100.00;98568.47;5160066;27;20411;-62
2023/10/04 10:19:55;;;;;;;6.90;1.70;;;;;;;19.99;100.00;98565.44;5160532;27;20050;-62
2023/10/04 10:22:21;;;;;;;3.50;1.10;;;;;;;20.47;100.00;98565.59;5160090;27;20055;-61
2023/10/04 10:25:13;;;;;;;6.18;1.73;;;;;;;20.51;100.00;98597.69;5160099;27;20066;-62
2023/10/04 10:27:39;;;;;;;5.88;1.40;;;;;;;19.77;100.00;98587.56;5160117;27;20336;-61
2023/10/04 10:30:08;;;;;;;7.57;1.40;;;;;;;20.05;100.00;98587.94;5160590;27;20078;-62
2023/10/04 10:32:34;;;;;;;1.75;1.20;;;;;;;20.05;100.00;98596.28;5160166;27;20133;-63
2023/10/04 10:35:04;;;;;;;10.85;1.92;;;;;;;19.86;100.00;98584.13;5160209;27;20119;-61
2023/10/04 10:37:35;;;;;;;9.48;1.27;;;;;;;19.98;100.00;98602.84;5159713;27;20047;-61
2023/10/04 10:40:07;;;;;;;7.00;2.35;;;;;;;19.57;100.00;98590.47;5159816;27;20046;-63
2023/10/04 10:43:07;;;;;;;11.70;1.95;;;;;;;19.28;100.00;98573.78;5160005;27;20054;-60
2023/10/04 10:45:34;;;;;;;14.77;2.35;;;;;;;19.14;100.00;98577.72;5159696;27;20046;-57
2023/10/04 10:48:01;;;;;;;6.25;1.67;;;;;;;19.00;100.00;98578.09;5160123;27;20215;-58
2023/10/04 10:50:34;;;;;;;8.15;2.40;;;;;;;18.86;100.00;98559.00;5159791;27;20050;-60
2023/10/04 10:53:05;;;;;;;4.50;1.40;;;;;;;18.65;100.00;98519.44;5160282;27;20112;-58
2023/10/04 10:55:33;;;;;;;9.68;2.10;;;;;;;19.09;100.00;98552.47;5159705;27;20090;-61
2023/10/04 10:57:59;;;;;;;15.02;1.70;;;;;;;19.18;100.00;98561.72;5159443;27;20054;-61
2023/10/04 11:00:31;;;;;;;3.00;1.23;;;;;;;19.71;100.00;98592.88;5159711;27;20082;-61
2023/10/04 11:02:59;;;;;;;5.70;2.22;;;;;;;19.63;100.00;98599.88;5159756;27;20050;-58
2023/10/04 11:05:26;;;;;;;10.27;2.20;;;;;;;19.26;100.00;98599.25;5160000;27;20129;-60
2023/10/04 11:07:54;;;;;;;4.90;1.60;;;;;;;19.63;100.00;98605.44;5159605;27;20050;-60
2023/10/04 11:10:23;;;;;;;8.38;1.77;;;;;;;19.59;100.00;98604.69;5159742;27;20396;-61
2023/10/04 11:12:51;;;;;;;14.25;3.00;;;;;;;19.12;100.00;98602.38;5159720;27;20057;-60
2023/10/04 11:15:20;;;;;;;12.52;2.25;;;;;;;19.02;100.00;98598.66;5159989;27;20054;-58
2023/10/04 11:17:47;;;;;;;4.55;1.73;;;;;;;19.11;100.00;98616.72;5158869;27;20100;-56
2023/10/04 11:20:17;;;;;;;7.57;1.77;;;;;;;18.80;100.00;98597.66;5159483;27;20046;-59
2023/10/04 11:22:44;;;;;;;13.10;1.77;;;;;;;18.84;100.00;98619.78;5159624;27;20324;-59